createdAt,value
2018-06-03T00:02:16.088Z,42.20
2018-06-03T00:05:18.660Z,40.63
2018-06-03T00:08:21.210Z,44.27
2018-06-03T00:11:23.735Z,43.30
2018-06-03T00:14:26.281Z,49.63
2018-06-03T00:17:28.845Z,48.93
2018-06-03T00:20:43.103Z,46.33
2018-06-03T00:23:45.582Z,48.03
2018-06-03T00:26:48.119Z,46.77
2018-06-03T00:29:50.608Z,51.30
2018-06-03T00:32:53.108Z,50.00
2018-06-03T00:36:07.320Z,49.73
2018-06-03T00:39:09.904Z,48.00
2018-06-03T00:42:12.417Z,54.13
2018-06-03T00:45:14.926Z,51.70
2018-06-03T00:48:17.417Z,53.63
2018-06-03T00:51:19.914Z,52.77
2018-06-03T00:54:22.407Z,54.90
2018-06-03T00:57:24.928Z,53.47
2018-06-03T01:00:27.504Z,53.83
2018-06-03T01:03:30.011Z,57.47
2018-06-03T01:06:32.567Z,54.13
2018-06-03T01:09:35.043Z,53.27
2018-06-03T01:12:38.335Z,50.93
2018-06-03T01:15:40.842Z,57.73
2018-06-03T01:18:43.452Z,54.73
2018-06-03T01:21:45.967Z,58.97
2018-06-03T01:24:48.466Z,52.37
2018-06-03T01:27:50.951Z,56.57
2018-06-03T01:30:53.458Z,54.77
2018-06-03T01:33:55.974Z,55.93
2018-06-03T01:36:58.493Z,57.60
2018-06-03T01:40:00.966Z,57.27
2018-06-03T01:43:03.486Z,52.87
2018-06-03T01:46:05.990Z,53.83
2018-06-03T01:49:08.480Z,59.97
2018-06-03T01:52:11.003Z,51.50
2018-06-03T01:55:13.524Z,55.73
2018-06-03T01:58:16.012Z,60.37
2018-06-03T02:01:18.494Z,60.97
2018-06-03T02:04:20.986Z,67.63
2018-06-03T02:07:23.479Z,69.77
2018-06-03T02:10:25.983Z,61.87
2018-06-03T02:13:28.475Z,62.63
2018-06-03T02:16:31.053Z,66.37
2018-06-03T02:19:33.572Z,64.43
2018-06-03T02:22:36.090Z,67.93
2018-06-03T02:25:38.628Z,64.90
2018-06-03T02:28:41.132Z,66.43
2018-06-03T02:31:43.653Z,63.00
2018-06-03T02:34:46.164Z,66.40
2018-06-03T02:37:48.667Z,64.43
2018-06-03T02:40:51.202Z,70.87
2018-06-03T02:43:53.703Z,66.77
2018-06-03T02:46:56.203Z,70.47
2018-06-03T02:49:58.719Z,63.77
2018-06-03T02:53:01.240Z,67.73
2018-06-03T02:56:03.730Z,65.07
2018-06-03T02:59:06.252Z,66.00
2018-06-03T03:02:08.731Z,64.73
2018-06-03T03:05:11.244Z,59.77
2018-06-03T03:08:13.751Z,61.73
2018-06-03T03:11:16.219Z,56.93
2018-06-03T03:14:18.703Z,59.50
2018-06-03T03:17:21.209Z,66.50
2018-06-03T03:20:23.689Z,62.27
2018-06-03T03:23:26.179Z,65.23
2018-06-03T03:26:28.658Z,68.30
2018-06-03T03:29:31.183Z,61.67
2018-06-03T03:32:33.666Z,68.37
2018-06-03T03:35:36.165Z,65.87
2018-06-03T03:38:38.690Z,63.50
2018-06-03T03:41:41.185Z,62.80
2018-06-03T03:44:43.663Z,62.23
2018-06-03T03:47:46.886Z,64.93
2018-06-03T03:50:49.358Z,66.47
2018-06-03T03:53:51.854Z,67.83
2018-06-03T03:56:54.341Z,73.33
2018-06-03T03:59:56.836Z,62.97
2018-06-03T04:02:59.351Z,63.70
2018-06-03T04:06:01.818Z,63.87
2018-06-03T04:09:04.320Z,67.43
2018-06-03T04:12:06.815Z,64.97
2018-06-03T04:15:09.333Z,66.37
2018-06-03T04:18:11.947Z,64.47
2018-06-03T04:21:14.438Z,65.07
2018-06-03T04:24:16.917Z,65.40
2018-06-03T04:27:19.411Z,66.47
2018-06-03T04:30:21.898Z,61.97
2018-06-03T04:33:24.378Z,64.83
2018-06-03T04:36:26.954Z,67.00
2018-06-03T04:39:29.461Z,67.07
2018-06-03T04:42:31.933Z,63.30
2018-06-03T04:45:34.454Z,63.42
2018-06-03T04:48:36.943Z,58.37
2018-06-03T04:51:39.435Z,56.87
2018-06-03T04:54:41.963Z,63.40
2018-06-03T04:57:44.463Z,59.33
2018-06-03T05:00:46.937Z,59.13
2018-06-03T05:03:49.443Z,61.53
2018-06-03T05:06:51.952Z,60.60
2018-06-03T05:09:54.487Z,62.00
2018-06-03T05:12:57.039Z,56.60
2018-06-03T05:15:59.554Z,62.73
2018-06-03T05:19:02.079Z,62.97
2018-06-03T05:22:04.587Z,58.80
2018-06-03T05:25:07.135Z,56.43
2018-06-03T05:28:09.663Z,56.43
2018-06-03T05:31:12.141Z,58.53
2018-06-03T05:34:14.629Z,52.83
2018-06-03T05:37:17.110Z,52.83
2018-06-03T05:40:19.628Z,56.73
2018-06-03T05:43:22.105Z,57.10
2018-06-03T05:46:24.675Z,49.67
2018-06-03T05:49:27.180Z,52.43
2018-06-03T05:52:29.673Z,51.50
2018-06-03T05:55:32.246Z,48.33
2018-06-03T05:58:34.748Z,49.93
2018-06-03T06:01:37.286Z,49.23
2018-06-03T06:04:39.825Z,53.00
2018-06-03T06:07:42.414Z,47.97
2018-06-03T06:10:44.964Z,56.00
2018-06-03T06:13:47.482Z,53.00
2018-06-03T06:16:50.017Z,54.93
2018-06-03T06:19:52.543Z,49.27
2018-06-03T06:22:55.171Z,53.03
2018-06-03T06:25:58.490Z,70.23
2018-06-03T06:29:01.006Z,49.20
2018-06-03T06:32:03.516Z,55.20
2018-06-03T06:35:06.058Z,54.90
2018-06-03T06:38:08.532Z,51.20
2018-06-03T06:41:11.696Z,55.03
2018-06-03T06:44:15.141Z,57.37
2018-06-03T06:47:17.648Z,48.73
2018-06-03T06:50:20.631Z,54.80
2018-06-03T06:53:23.150Z,45.93
2018-06-03T06:56:25.738Z,51.03
2018-06-03T06:59:28.250Z,45.27
2018-06-03T07:02:30.786Z,45.43
2018-06-03T07:05:33.346Z,43.37
2018-06-03T07:08:35.840Z,54.80
2018-06-03T07:11:38.362Z,47.20
2018-06-03T07:14:40.917Z,47.13
2018-06-03T07:17:43.559Z,44.73
2018-06-03T07:20:46.425Z,48.93
2018-06-03T07:23:48.931Z,49.27
2018-06-03T07:26:51.510Z,47.10
2018-06-03T07:29:54.125Z,44.47
2018-06-03T07:32:56.661Z,43.23
2018-06-03T07:35:59.180Z,45.87
2018-06-03T07:39:01.690Z,46.70
2018-06-03T07:42:04.224Z,52.00
2018-06-03T07:45:06.739Z,46.37
2018-06-03T07:48:09.276Z,45.40
2018-06-03T07:51:11.806Z,46.97
2018-06-03T07:54:14.358Z,41.93
2018-06-03T07:57:16.950Z,47.73
2018-06-03T08:00:19.592Z,48.47
2018-06-03T08:03:22.169Z,43.57
2018-06-03T08:06:24.704Z,51.13
2018-06-03T08:09:27.230Z,48.77
2018-06-03T08:12:29.776Z,46.60
2018-06-03T08:15:32.430Z,46.93
2018-06-03T08:18:34.956Z,45.80
2018-06-03T08:21:37.477Z,49.23
2018-06-03T08:24:40.039Z,40.07
2018-06-03T08:27:42.574Z,46.63
2018-06-03T08:30:45.224Z,43.27
2018-06-03T08:33:48.462Z,44.23
2018-06-03T08:36:50.988Z,45.60
2018-06-03T08:39:53.542Z,44.67
2018-06-03T08:42:56.101Z,41.27
2018-06-03T08:45:58.710Z,33.90
2018-06-03T08:49:02.022Z,35.23
2018-06-03T08:52:04.564Z,42.33
2018-06-03T08:55:07.073Z,41.50
2018-06-03T08:58:09.625Z,52.90
2018-06-03T09:01:12.225Z,43.20
2018-06-03T09:04:14.774Z,36.67
2018-06-03T09:07:17.294Z,27.90
2018-06-03T09:10:19.849Z,30.90
2018-06-03T09:13:24.158Z,32.30
2018-06-03T09:16:26.777Z,32.53
2018-06-03T09:19:29.307Z,40.97
2018-06-03T09:22:31.909Z,40.07
2018-06-03T09:25:34.446Z,40.20
2018-06-03T09:28:37.075Z,39.53
2018-06-03T09:31:39.644Z,49.80
2018-06-03T09:34:42.253Z,44.97
2018-06-03T09:37:44.801Z,48.67
2018-06-03T09:40:47.421Z,49.57
2018-06-03T09:43:50.037Z,52.73
2018-06-03T09:46:52.665Z,48.73
2018-06-03T09:49:55.181Z,53.90
2018-06-03T09:52:58.033Z,56.20
2018-06-03T09:56:00.589Z,60.47
2018-06-03T09:59:03.239Z,61.53
2018-06-03T10:02:05.803Z,69.07
2018-06-03T10:05:08.389Z,64.53
2018-06-03T10:08:10.964Z,64.90
2018-06-03T10:11:13.528Z,62.70
2018-06-03T10:14:16.175Z,60.63
2018-06-03T10:17:18.866Z,55.10
2018-06-03T10:20:21.444Z,52.83
2018-06-03T10:23:24.016Z,53.90
2018-06-03T10:26:26.609Z,64.23
2018-06-03T10:29:29.190Z,53.23
2018-06-03T10:32:31.754Z,49.20
2018-06-03T10:35:34.344Z,46.30
2018-06-03T10:38:36.991Z,46.80
2018-06-03T10:41:40.700Z,42.17
2018-06-03T10:44:43.329Z,40.80
2018-06-03T10:47:46.006Z,34.23
2018-06-03T10:50:48.563Z,35.60
2018-06-03T10:53:51.102Z,34.37
2018-06-03T10:56:54.800Z,34.27
2018-06-03T10:59:57.447Z,32.00
2018-06-03T11:03:00.040Z,29.53
2018-06-03T11:06:02.634Z,28.23
2018-06-03T11:09:05.208Z,27.23
2018-06-03T11:12:07.747Z,26.27
2018-06-03T11:15:10.270Z,23.43
2018-06-03T11:18:12.908Z,23.90
2018-06-03T11:21:15.466Z,22.97
2018-06-03T11:24:18.623Z,24.83
2018-06-03T11:27:21.226Z,25.87
2018-06-03T11:30:23.788Z,24.23
2018-06-03T11:33:26.366Z,28.60
2018-06-03T11:36:28.925Z,28.87
2018-06-03T11:39:31.530Z,29.73
2018-06-03T11:42:34.104Z,30.60
2018-06-03T11:45:42.181Z,30.87
2018-06-03T11:48:44.826Z,28.10
2018-06-03T11:51:47.851Z,32.97
2018-06-03T11:54:50.910Z,43.83
2018-06-03T11:57:55.558Z,27.37
2018-06-03T12:01:06.367Z,28.70
2018-06-03T12:04:09.176Z,27.10
2018-06-03T12:07:12.329Z,26.43
2018-06-03T12:10:16.353Z,27.57
2018-06-03T12:13:19.286Z,26.73
2018-06-03T12:16:22.212Z,22.73
2018-06-03T12:19:24.994Z,27.07
2018-06-03T12:22:28.675Z,25.33
2018-06-03T12:25:31.537Z,23.67
2018-06-03T12:28:34.391Z,20.43
2018-06-03T12:31:38.493Z,51.87
2018-06-03T12:34:41.629Z,35.17
2018-06-03T12:37:44.276Z,27.73
2018-06-03T12:40:46.819Z,24.43
2018-06-03T12:43:49.412Z,23.27
2018-06-03T12:46:51.957Z,22.53
2018-06-03T12:49:54.569Z,20.83
2018-06-03T12:52:58.282Z,23.70
2018-06-03T12:56:01.967Z,68.93
2018-06-03T12:59:04.682Z,25.67
2018-06-03T13:02:07.258Z,22.73
2018-06-03T13:05:09.856Z,23.20
2018-06-03T13:08:12.443Z,19.00
2018-06-03T13:11:15.045Z,21.53
2018-06-03T13:14:17.592Z,15.20
2018-06-03T13:17:20.198Z,16.50
2018-06-03T13:20:22.741Z,15.80
2018-06-03T13:23:25.400Z,15.83
2018-06-03T13:26:27.921Z,14.07
2018-06-03T13:29:30.563Z,13.80
2018-06-03T13:32:33.371Z,14.10
2018-06-03T13:35:35.968Z,12.80
2018-06-03T13:38:38.542Z,30.77
2018-06-03T13:41:41.094Z,31.63
2018-06-03T13:44:43.676Z,18.73
2018-06-03T13:47:46.223Z,20.83
2018-06-03T13:50:49.537Z,19.50
2018-06-03T13:53:52.121Z,12.83
2018-06-03T13:56:54.674Z,14.53
2018-06-03T13:59:57.271Z,30.43
2018-06-03T14:02:59.840Z,30.20
2018-06-03T14:06:02.399Z,27.77
2018-06-03T14:09:05.025Z,10.97
2018-06-03T14:12:07.581Z,12.60
2018-06-03T14:15:10.177Z,11.37
2018-06-03T14:18:12.783Z,12.20
2018-06-03T14:21:15.500Z,20.70
2018-06-03T14:24:18.088Z,17.63
2018-06-03T14:27:20.703Z,14.63
2018-06-03T14:30:23.371Z,11.37
2018-06-03T14:33:26.016Z,10.73
2018-06-03T14:36:28.656Z,11.40
2018-06-03T14:39:31.239Z,10.00
2018-06-03T14:42:33.774Z,10.73
2018-06-03T14:45:36.362Z,9.90
2018-06-03T14:48:38.946Z,11.20
2018-06-03T14:51:41.621Z,10.60
2018-06-03T14:54:44.246Z,9.27
2018-06-03T14:57:46.765Z,11.27
2018-06-03T15:00:49.417Z,11.90
2018-06-03T15:03:52.036Z,13.33
2018-06-03T15:06:54.560Z,10.83
2018-06-03T15:09:57.148Z,41.47
2018-06-03T15:12:59.718Z,48.07
2018-06-03T15:16:02.367Z,32.50
2018-06-03T15:19:04.992Z,39.70
2018-06-03T15:22:07.584Z,12.90
2018-06-03T15:25:10.213Z,13.40
2018-06-03T15:28:12.807Z,12.53
2018-06-03T15:31:15.529Z,12.47
2018-06-03T15:34:19.383Z,38.77
2018-06-03T15:37:22.093Z,10.37
2018-06-03T15:40:24.736Z,10.33
2018-06-03T15:43:27.406Z,13.73
2018-06-03T15:46:30.092Z,13.63
2018-06-03T15:49:32.655Z,11.73
2018-06-03T15:52:35.204Z,12.57
2018-06-03T15:55:37.852Z,12.87
2018-06-03T15:58:40.439Z,9.93
2018-06-03T16:01:43.137Z,10.37
2018-06-03T16:04:45.772Z,11.30
2018-06-03T16:07:48.443Z,24.87
2018-06-03T16:10:51.060Z,20.90
2018-06-03T16:13:53.677Z,20.90
2018-06-03T16:16:56.374Z,16.43
2018-06-03T16:19:59.168Z,17.67
2018-06-03T16:23:01.966Z,13.93
2018-06-03T16:26:04.665Z,16.33
2018-06-03T16:29:07.345Z,16.20
2018-06-03T16:32:10.023Z,31.57
2018-06-03T16:35:12.695Z,19.83
2018-06-03T16:38:15.859Z,17.40
2018-06-03T16:41:19.094Z,23.50
2018-06-03T16:44:23.234Z,21.27
2018-06-03T16:47:25.815Z,17.23
2018-06-03T16:50:28.979Z,15.50
2018-06-03T16:53:31.692Z,14.97
2018-06-03T16:56:34.467Z,18.23
2018-06-03T16:59:37.209Z,27.53
2018-06-03T17:02:39.806Z,24.40
2018-06-03T17:05:42.615Z,15.30
2018-06-03T17:08:45.226Z,15.13
2018-06-03T17:11:48.123Z,14.90
2018-06-03T17:14:51.687Z,17.67
2018-06-03T17:17:54.461Z,14.50
2018-06-03T17:20:57.163Z,17.53
2018-06-03T17:23:59.836Z,14.27
2018-06-03T17:27:02.635Z,15.23
2018-06-03T17:30:05.387Z,14.80
2018-06-03T17:33:08.157Z,14.17
2018-06-03T17:36:10.852Z,15.03
2018-06-03T17:39:13.717Z,13.40
2018-06-03T17:42:16.344Z,15.73
2018-06-03T17:45:18.993Z,13.83
2018-06-03T17:48:21.753Z,16.60
2018-06-03T17:51:24.544Z,41.00
2018-06-03T17:54:27.181Z,24.40
2018-06-03T17:57:30.487Z,27.87
2018-06-03T18:00:33.339Z,22.30
2018-06-03T18:03:36.095Z,17.40
2018-06-03T18:06:38.713Z,17.37
2018-06-03T18:09:41.365Z,14.77
2018-06-03T18:12:44.974Z,14.40
2018-06-03T18:15:49.459Z,15.47
2018-06-03T18:18:52.732Z,17.03
2018-06-03T18:21:57.596Z,57.07
2018-06-03T18:25:00.641Z,34.53
2018-06-03T18:28:04.448Z,16.33
2018-06-03T18:31:07.107Z,20.30
2018-06-03T18:34:09.852Z,18.13
2018-06-03T18:37:12.570Z,15.93
2018-06-03T18:40:15.153Z,24.07
2018-06-03T18:43:17.926Z,34.57
2018-06-03T18:46:20.672Z,47.70
2018-06-03T18:49:23.444Z,39.47
2018-06-03T18:52:26.329Z,26.17
2018-06-03T18:55:29.020Z,24.53
2018-06-03T18:58:31.696Z,16.73
2018-06-03T19:01:35.304Z,17.27
2018-06-03T19:04:37.971Z,18.43
2018-06-03T19:07:40.595Z,33.73
2018-06-03T19:10:43.452Z,22.33
2018-06-03T19:13:46.655Z,35.03
2018-06-03T19:16:49.292Z,57.30
2018-06-03T19:19:51.946Z,29.37
2018-06-03T19:22:55.835Z,29.40
2018-06-03T19:26:02.529Z,35.17
2018-06-03T19:29:05.975Z,31.50
2018-06-03T19:32:09.746Z,21.33
2018-06-03T19:35:14.353Z,19.03
2018-06-03T19:38:17.521Z,17.27
2018-06-03T19:41:21.414Z,16.83
2018-06-03T19:44:25.879Z,21.50
2018-06-03T19:47:30.426Z,17.03
2018-06-03T19:50:33.379Z,19.53
2018-06-03T19:53:37.417Z,18.33
2018-06-03T19:56:40.078Z,18.10
2018-06-03T19:59:43.202Z,20.37
2018-06-03T20:02:46.255Z,17.90
2018-06-03T20:05:49.138Z,18.60
2018-06-03T20:08:51.806Z,21.33
2018-06-03T20:11:54.459Z,22.77
2018-06-03T20:14:57.105Z,28.70
2018-06-03T20:17:59.803Z,19.63
2018-06-03T20:21:02.384Z,19.93
2018-06-03T20:24:05.035Z,21.47
2018-06-03T20:27:07.711Z,17.53
2018-06-03T20:30:10.505Z,18.13
2018-06-03T20:33:13.134Z,18.13
2018-06-03T20:36:15.781Z,16.37
2018-06-03T20:39:18.368Z,16.93
2018-06-03T20:42:21.026Z,17.07
2018-06-03T20:45:23.635Z,18.23
2018-06-03T20:48:26.246Z,18.60
2018-06-03T20:51:28.829Z,17.57
2018-06-03T20:55:22.502Z,18.03
2018-06-03T20:58:25.983Z,17.87
2018-06-03T21:01:29.351Z,17.17
2018-06-03T21:04:36.010Z,17.77
2018-06-03T21:07:39.539Z,17.70
2018-06-03T21:10:42.974Z,18.03
2018-06-03T21:13:46.442Z,20.03
2018-06-03T21:16:51.910Z,19.10
2018-06-03T21:19:55.565Z,19.43
2018-06-03T21:22:59.946Z,19.57
2018-06-03T21:26:03.331Z,20.37
2018-06-03T21:29:06.674Z,19.93
2018-06-03T21:32:09.951Z,20.40
2018-06-03T21:35:13.311Z,18.30
2018-06-03T21:38:16.695Z,22.73
2018-06-03T21:41:19.959Z,19.73
2018-06-03T21:44:23.290Z,19.03
2018-06-03T21:47:26.625Z,20.40
2018-06-03T21:50:29.991Z,20.53
2018-06-03T21:53:33.342Z,18.93
2018-06-03T21:56:36.671Z,20.57
2018-06-03T21:59:40.007Z,21.57
2018-06-03T22:02:43.506Z,18.30
2018-06-03T22:05:46.857Z,20.73
2018-06-03T22:08:50.174Z,20.40
2018-06-03T22:11:53.461Z,22.60
2018-06-03T22:14:56.736Z,23.30
2018-06-03T22:18:00.110Z,24.53
2018-06-03T22:21:03.362Z,28.30
2018-06-03T22:24:06.623Z,20.17
2018-06-03T22:27:09.807Z,19.60
2018-06-03T22:30:13.011Z,22.60
2018-06-03T22:33:16.303Z,20.37
2018-06-03T22:36:19.492Z,20.03
2018-06-03T22:39:22.829Z,20.83
2018-06-03T22:42:26.090Z,18.90
2018-06-03T22:45:29.353Z,19.33
2018-06-03T22:48:32.622Z,18.53
2018-06-03T22:51:35.877Z,21.23
2018-06-03T22:54:39.177Z,18.77
2018-06-03T22:57:48.902Z,18.13
2018-06-03T23:00:52.359Z,17.77
2018-06-03T23:03:55.644Z,19.37
2018-06-03T23:06:58.958Z,21.53
2018-06-03T23:10:02.291Z,18.30
2018-06-03T23:13:05.585Z,20.43
2018-06-03T23:16:08.824Z,19.20
2018-06-03T23:19:13.329Z,20.77
2018-06-03T23:22:16.559Z,19.37
2018-06-03T23:25:19.854Z,18.60
2018-06-03T23:28:23.625Z,20.17
2018-06-03T23:31:26.895Z,25.23
2018-06-03T23:34:30.112Z,35.00
2018-06-03T23:37:33.289Z,35.30
2018-06-03T23:40:36.541Z,29.13
2018-06-03T23:43:39.719Z,24.17
2018-06-03T23:46:42.978Z,26.30
2018-06-03T23:49:46.135Z,26.10
2018-06-03T23:52:49.376Z,22.30
2018-06-03T23:55:52.593Z,21.93
2018-06-03T23:58:55.757Z,21.60
